KSGH Airport Information

Runway Information
Runway 06 Length 9009 ft width 150 ft
Elevation 1051 ft Threshold 0 ft Heading 54
Runway 24 Length 9009 ft Width 150 ft
Elevation 1037 ft Threshold 0 ft Heading 234
Runway 15 Length 5499 ft width 100 ft
Elevation 1042 ft Threshold 0 ft Heading 144
Runway 33 Length 5499 ft Width 100 ft
Elevation 1041 ft Threshold 0 ft Heading 324
Airport Frequencies
Type A/D Name DAYTON APP Frequency 118.85 MHZ
Type ASOS Name AWSS Frequency 134.975 MHZ
Type ATIS Name ATIS Frequency 25.787 MHZ
Type CTAF Name CTAF Frequency 120.7 MHZ
Type GND Name GND Frequency 121.7 MHZ
Type OPS Name 178 FW OPS Frequency 141.7 MHZ
Type TWR Name TWR Frequency 120.7 MHZ
Type UNIC Name UNICOM Frequency 122.95 MHZ
Airport Navaids
Type NDB Name Clark Co Frequency 341 KHZ
Type VOR-DME Name Springfield Frequency 113200 KHZ
Type TACAN Name Springfield Frequency 133800 KHZ
Airport Weather Information & NOTAM
ADDS - METARS form results

(1847 UTC 22 January 2021)
Data provider http://aviationweather.gov/metar/data/
 
METAR text: KSGH 221829Z AUTO 29013KT 10SM OVC031 M01/M06 A3001 RMK AO2
Conditions at: KSGH (SPRINGFIELD MUNI, OH, US) observed 1829 UTC 22 January 2021
Temperature: -1.0°C (30°F)
Dewpoint: -6.0°C (21°F) [RH = 69%]
Pressure (altimeter): 30.01 inches Hg (1016.3 mb)
Winds: from the WNW (290 degrees) at 15 MPH (13 knots; 6.7 m/s)
Visibility: 10 or more miles (16+ km)
Ceiling: 3100 feet AGL
Clouds: overcast cloud deck at 3100 feet AGL
Weather: automated observation with no human augmentation;
there may or may not be significant weather present at this time

METAR text: KSGH 221756Z AUTO 29015KT 10SM OVC025 M01/M05 A3001 RMK AO2 SLP173 60010 T10061050 10011 21022 51015
Conditions at: KSGH (SPRINGFIELD MUNI, OH, US) observed 1756 UTC 22 January 2021
Temperature: -0.6°C (31°F)
Dewpoint: -5.0°C (23°F) [RH = 72%]
Pressure (altimeter): 30.01 inches Hg (1016.3 mb)
[Sea-level pressure: 1017.3 mb]
Winds: from the WNW (290 degrees) at 17 MPH (15 knots; 7.7 m/s)
Visibility: 10 or more miles (16+ km)
Ceiling: 2500 feet AGL
Clouds: overcast cloud deck at 2500 feet AGL
Weather: automated observation with no human augmentation;
there may or may not be significant weather present at this time